Time;durP1;ratioP1;P1;durP2;ratioP2;P2;SDS_P1;SDS_P2;PMS_P1;PMS_P2;Temp;Humidity;BMP_temperature;BMP_pressure;BME280_temperature;BME280_humidity;BME280_pressure;Samples;Min_cycle;Max_cycle;Signal;HPM_P1;HPM_P2
2022/04/19 00:01:00;;;;;;;;;31.50;26.00;;;;;5.98;83.16;99224.09;6280341;20;2834678;-53
2022/04/19 00:03:29;;;;;;;;;38.50;31.50;;;;;5.85;84.37;99226.47;6279594;20;2858613;-50
2022/04/19 00:05:57;;;;;;;;;26.50;21.00;;;;;6.31;81.22;99225.97;6285954;20;2833571;-48
2022/04/19 00:08:26;;;;;;;;;33.50;28.50;;;;;6.20;81.25;99225.66;6282084;20;2856685;-50
2022/04/19 00:10:54;;;;;;;;;29.50;25.00;;;;;5.94;80.85;99219.84;6280683;20;2500235;-49
2022/04/19 00:13:22;;;;;;;;;28.00;27.00;;;;;5.71;82.37;99213.84;6283638;20;2841918;-48
2022/04/19 00:15:50;;;;;;;;;28.50;27.00;;;;;5.74;81.99;99212.81;6275220;20;2500295;-49
2022/04/19 00:18:21;;;;;;;;;30.00;25.50;;;;;5.60;82.38;99210.81;6278310;20;2500298;-49
2022/04/19 00:20:50;;;;;;;;;32.00;27.00;;;;;5.62;83.07;99218.75;6279564;20;2864859;-51
2022/04/19 00:23:18;;;;;;;;;25.00;21.50;;;;;5.72;82.01;99210.22;6282176;20;2848163;-49
2022/04/19 00:25:50;;;;;;;;;32.00;24.50;;;;;5.89;79.73;99201.38;6280244;20;2852365;-49
2022/04/19 00:28:17;;;;;;;;;29.00;28.00;;;;;5.91;79.34;99198.66;6280536;20;2496195;-53
2022/04/19 00:30:47;;;;;;;;;24.33;23.00;;;;;5.92;79.12;99201.25;6280180;20;3576345;-48
2022/04/19 00:33:16;;;;;;;;;29.50;23.00;;;;;5.74;80.53;99196.84;6279588;20;2500265;-52
2022/04/19 00:35:44;;;;;;;;;24.00;21.00;;;;;5.85;79.84;99202.47;6280584;20;2500352;-48
2022/04/19 00:38:12;;;;;;;;;22.67;20.67;;;;;5.67;78.73;99192.75;6280767;20;3569012;-51
2022/04/19 00:40:40;;;;;;;;;28.50;23.00;;;;;5.86;77.38;99196.22;6276361;20;2500293;-51
2022/04/19 00:43:10;;;;;;;;;20.50;19.50;;;;;6.00;77.28;99197.34;6280633;20;2500274;-51
2022/04/19 00:45:39;;;;;;;;;25.33;22.67;;;;;5.87;76.53;99181.06;6278336;20;3571156;-49
2022/04/19 00:48:08;;;;;;;;;22.50;21.50;;;;;5.80;77.94;99185.00;6280165;20;2845043;-48
2022/04/19 00:50:37;;;;;;;;;21.00;18.00;;;;;5.81;77.81;99182.25;6280707;20;2814843;-51
2022/04/19 00:53:09;;;;;;;;;23.00;19.50;;;;;5.68;78.96;99173.16;6278845;20;2500341;-51
2022/04/19 00:55:37;;;;;;;;;22.50;20.00;;;;;5.78;78.84;99177.09;6277376;20;2825235;-51
2022/04/19 00:58:06;;;;;;;;;25.50;24.00;;;;;5.80;78.00;99174.34;6279761;20;2850266;-51
2022/04/19 01:00:35;;;;;;;;;21.67;19.00;;;;;5.52;78.29;99174.84;6276512;20;3555461;-51
2022/04/19 01:03:02;;;;;;;;;26.50;21.00;;;;;5.57;78.82;99167.50;6280903;20;2828402;-51
2022/04/19 01:05:33;;;;;;;;;21.50;20.00;;;;;5.48;78.47;99171.50;6280020;20;2500224;-50
2022/04/19 01:08:01;;;;;;;;;19.00;17.00;;;;;5.30;78.94;99167.91;6282215;20;2825405;-52
2022/04/19 01:10:30;;;;;;;;;19.00;16.00;;;;;5.43;78.03;99166.38;6279349;20;2819132;-51
2022/04/19 01:13:17;;;;;;;;;23.00;18.00;;;;;5.65;77.02;99160.00;6279375;20;3553352;-51
2022/04/19 01:15:50;;;;;;;;;17.00;16.00;;;;;5.61;76.97;99159.28;6310138;20;2825929;-52
2022/04/19 01:18:22;;;;;;;;;16.33;16.33;;;;;5.27;77.63;99149.44;6279789;20;3551391;-51
2022/04/19 01:20:52;;;;;;;;;16.00;16.00;;;;;5.63;76.60;99152.06;6311668;20;3540985;-50
2022/04/19 01:23:22;;;;;;;;;16.00;16.00;;;;;5.49;76.18;99146.59;6309206;20;3569000;-53
2022/04/19 01:25:50;;;;;;;;;20.00;17.00;;;;;5.42;75.77;99147.81;6312392;20;2819006;-48
2022/04/19 01:28:19;;;;;;;;;17.33;15.00;;;;;5.33;75.82;99146.47;6286468;20;3551357;-51
2022/04/19 01:30:54;;;;;;;;;16.00;16.00;;;;;5.57;75.23;99144.41;6315266;20;2807917;-49
2022/04/19 01:33:23;;;;;;;;;16.00;15.00;;;;;5.59;75.92;99147.00;6284421;20;2809736;-51
2022/04/19 01:35:51;;;;;;;;;21.50;17.00;;;;;5.60;75.89;99146.03;6315898;20;2825382;-50
2022/04/19 01:38:21;;;;;;;;;20.00;15.80;;;;;5.50;76.33;99148.28;6310154;20;2818015;-51
2022/04/19 01:40:49;;;;;;;;;17.50;15.50;;;;;5.18;76.17;99140.09;6285923;20;2825303;-48
2022/04/19 01:43:18;;;;;;;;;17.00;14.33;;;;;5.27;76.74;99133.47;6284187;20;3538803;-49
2022/04/19 01:45:48;;;;;;;;;14.00;14.00;;;;;5.23;77.77;99132.75;6314440;20;3545221;-52
2022/04/19 01:48:17;;;;;;;;;14.00;14.00;;;;;5.10;78.02;99133.41;6313291;20;3541885;-52
2022/04/19 01:50:45;;;;;;;;;10.50;10.50;;;;;4.98;78.61;99127.75;6313699;20;2803633;-51
2022/04/19 01:53:14;;;;;;;;;19.33;15.00;;;;;5.04;78.66;99132.78;6285196;20;3558713;-50
2022/04/19 01:55:44;;;;;;;;;16.00;13.00;;;;;4.94;79.06;99131.47;6315519;20;2814897;-53
2022/04/19 01:58:12;;;;;;;;;16.67;13.00;;;;;4.93;79.18;99135.09;6285305;20;2816102;-53
2022/04/19 02:00:41;;;;;;;;;17.33;17.00;;;;;4.74;79.48;99128.91;6314191;20;3553390;-53
2022/04/19 02:03:10;;;;;;;;;15.00;13.67;;;;;4.89;79.17;99135.31;6315924;20;3540870;-49
2022/04/19 02:05:38;;;;;;;;;21.00;16.50;;;;;4.72;80.62;99125.47;6316599;20;2825271;-51
2022/04/19 02:08:07;;;;;;;;;17.33;16.00;;;;;4.91;79.42;99131.63;6282448;20;3553405;-51
2022/04/19 02:10:36;;;;;;;;;17.33;15.67;;;;;4.61;80.53;99124.16;6314011;20;3555453;-50
2022/04/19 02:13:05;;;;;;;;;16.00;15.80;;;;;4.39;80.88;99124.28;6338279;20;2807688;-51
2022/04/19 02:15:33;;;;;;;;;17.50;17.50;;;;;4.08;82.15;99115.94;6284215;20;2820081;-48
2022/04/19 02:18:03;;;;;;;;;23.00;17.33;;;;;4.22;82.08;99120.66;6283973;20;3551302;-49
2022/04/19 02:20:33;;;;;;;;;16.00;16.00;;;;;4.31;82.37;99109.63;6315067;20;2814910;-50
2022/04/19 02:23:01;;;;;;;;;18.00;15.67;;;;;4.21;83.16;99110.97;6284748;20;3550251;-48
2022/04/19 02:25:30;;;;;;;;;24.33;18.00;;;;;4.36;81.30;99118.25;6317085;20;3554485;-48
2022/04/19 02:27:58;;;;;;;;;26.00;21.00;;;;;4.49;81.59;99108.78;6282922;20;2835657;-50
2022/04/19 02:30:27;;;;;;;;;25.67;21.33;;;;;4.25;82.12;99109.91;6283692;20;3569061;-50
2022/04/19 02:32:55;;;;;;;;;24.50;20.00;;;;;4.16;83.13;99114.69;6281684;20;2500283;-51
2022/04/19 02:35:23;;;;;;;;;20.50;18.50;;;;;3.95;84.58;99107.69;6287679;20;2828410;-49
2022/04/19 02:37:56;;;;;;;;;21.00;15.00;;;;;4.05;84.70;99111.63;6280563;20;2810816;-49
2022/04/19 02:40:26;;;;;;;;;16.67;15.33;;;;;3.99;85.23;99103.09;6281549;20;3556522;-53
2022/04/19 02:42:55;;;;;;;;;18.00;18.00;;;;;4.00;85.79;99105.66;6315980;20;2810768;-49
2022/04/19 02:45:25;;;;;;;;;23.00;21.00;;;;;4.05;85.13;99103.66;6306030;20;2826430;-50
2022/04/19 02:48:08;;;;;;;;;18.00;17.00;;;;;3.94;84.77;99096.19;6284320;20;3562878;-52
2022/04/19 02:50:45;;;;;;;;;20.50;19.00;;;;;3.80;84.71;99103.03;6312750;20;2820048;-51
2022/04/19 02:53:14;;;;;;;;;18.00;18.00;;;;;3.94;84.93;99092.66;6280365;20;3561727;-48
2022/04/19 02:55:42;;;;;;;;;24.00;19.00;;;;;4.00;84.92;99094.19;6320999;20;2684812;-52
2022/04/19 02:58:11;;;;;;;;;17.67;17.67;;;;;3.90;84.44;99093.75;6311812;20;3548158;-51
2022/04/19 03:00:39;;;;;;;;;19.00;19.00;;;;;3.92;84.80;99087.44;6313129;20;2827339;-49
2022/04/19 03:03:09;;;;;;;;;18.33;17.33;;;;;4.04;85.45;99091.31;6285128;20;3549201;-51
2022/04/19 03:05:40;;;;;;;;;24.33;19.67;;;;;4.25;84.17;99096.63;6312521;20;3554401;-50
2022/04/19 03:08:09;;;;;;;;;19.00;17.00;;;;;4.34;83.42;99093.53;6315374;20;2825275;-52
2022/04/19 03:10:37;;;;;;;;;20.00;16.00;;;;;4.38;83.01;99095.13;6283283;20;3551263;-50
2022/04/19 03:13:05;;;;;;;;;23.50;18.50;;;;;4.13;83.19;99098.00;6313667;20;2821091;-52
2022/04/19 03:15:34;;;;;;;;;21.00;17.50;;;;;4.41;82.45;99100.28;6283222;20;2815917;-48
2022/04/19 03:18:03;;;;;;;;;19.33;18.33;;;;;4.62;78.66;99101.94;6281133;20;3555548;-52
2022/04/19 03:20:32;;;;;;;;;19.00;19.00;;;;;4.33;81.94;99092.66;6312583;20;3547136;-49
2022/04/19 03:28:32;;;;;;;;;24.50;19.00;;;;;4.58;79.55;99100.38;6283075;20;2829539;-48
2022/04/19 03:31:01;;;;;;;;;20.67;18.00;;;;;4.47;79.89;99105.31;6282809;20;3553386;-51
2022/04/19 03:33:29;;;;;;;;;19.00;17.00;;;;;4.43;81.07;99109.06;6284361;20;2808757;-50
2022/04/19 03:35:56;;;;;;;;;17.00;17.00;;;;;4.47;80.33;99100.00;6283912;20;2817976;-51
2022/04/19 03:38:25;;;;;;;;;21.00;17.67;;;;;4.50;79.54;99096.34;6280035;20;3545207;-49
2022/04/19 03:40:54;;;;;;;;;20.00;16.67;;;;;4.30;80.94;99098.13;6312996;20;3571088;-49
2022/04/19 03:43:22;;;;;;;;;19.00;15.00;;;;;4.46;80.18;99098.28;6313300;20;2819018;-50
2022/04/19 03:45:51;;;;;;;;;24.00;21.00;;;;;4.51;79.18;99096.28;6282757;20;3577330;-52
2022/04/19 03:48:20;;;;;;;;;21.00;18.33;;;;;4.60;79.30;99095.84;6281782;20;3551424;-50
2022/04/19 03:50:51;;;;;;;;;13.00;13.00;;;;;4.55;78.80;99092.53;6278397;20;3533609;-52
2022/04/19 03:53:20;;;;;;;;;23.00;21.33;;;;;4.64;77.60;99096.56;6314024;20;3561683;-50
2022/04/19 03:55:48;;;;;;;;;19.00;18.00;;;;;4.77;77.63;99094.22;6280530;20;2500285;-50
2022/04/19 03:58:17;;;;;;;;;19.67;18.67;;;;;4.56;78.51;99093.41;6279737;20;3560769;-53
2022/04/19 04:00:48;;;;;;;;;18.00;17.00;;;;;4.61;78.70;99094.91;6278084;20;3547283;-52
2022/04/19 04:03:16;;;;;;;;;14.00;12.00;;;;;4.47;78.93;99094.69;6282137;20;2796085;-48
2022/04/19 04:05:44;;;;;;;;;22.00;18.00;;;;;4.47;79.46;99094.69;6283516;20;3549222;-49
2022/04/19 04:08:13;;;;;;;;;18.00;18.00;;;;;4.62;78.60;99101.09;6313146;20;3565052;-52
2022/04/19 04:10:42;;;;;;;;;21.67;21.67;;;;;4.80;77.96;99102.03;6311462;20;3560711;-51
2022/04/19 04:13:10;;;;;;;;;26.50;18.00;;;;;4.89;76.60;99101.59;6281497;20;2833662;-50
2022/04/19 04:15:39;;;;;;;;;16.33;12.67;;;;;4.82;77.12;99100.16;6292541;20;3551262;-50
2022/04/19 04:18:08;;;;;;;;;19.00;19.00;;;;;4.81;78.10;99103.75;6311879;20;3557539;-51
2022/04/19 04:20:36;;;;;;;;;26.50;21.50;;;;;4.79;77.88;99105.59;6307757;20;2500273;-49
2022/04/19 04:23:07;;;;;;;;;23.50;22.00;;;;;4.86;78.77;99104.38;6278232;20;2493995;-52
2022/04/19 04:25:35;;;;;;;;;26.00;20.00;;;;;4.76;79.12;99106.63;6279211;20;3570009;-52
2022/04/19 04:28:04;;;;;;;;;19.00;17.00;;;;;4.74;79.12;99110.28;6282354;20;2813907;-53
2022/04/19 04:30:31;;;;;;;;;19.50;15.00;;;;;4.91;76.98;99115.69;6282261;20;2822181;-53
2022/04/19 04:33:00;;;;;;;;;20.00;19.33;;;;;4.68;77.79;99113.22;6282106;20;3558644;-53
2022/04/19 04:35:28;;;;;;;;;22.50;20.00;;;;;4.95;77.59;99114.59;6315089;20;2832535;-55
2022/04/19 04:37:56;;;;;;;;;21.33;18.00;;;;;5.02;75.84;99110.69;6281471;20;3553441;-54
2022/04/19 04:40:25;;;;;;;;;22.67;21.67;;;;;4.92;76.41;99112.06;6278858;20;3556527;-52
2022/04/19 04:42:54;;;;;;;;;16.67;16.67;;;;;4.91;76.50;99118.34;6281416;20;3553396;-52
2022/04/19 04:45:22;;;;;;;;;17.33;16.33;;;;;5.03;76.19;99114.25;6310593;20;3560682;-52
2022/04/19 04:50:38;;;;;;;;;45.67;38.00;;;;;5.15;75.88;99118.09;6278103;20;3624176;-52
2022/04/19 04:53:08;;;;;;;;;52.00;39.33;;;;;5.38;75.36;99109.00;6311807;20;3614799;-50
2022/04/19 04:55:37;;;;;;;;;32.00;27.00;;;;;5.31;75.07;99113.72;6309118;20;2854411;-51
2022/04/19 04:58:05;;;;;;;;;27.67;23.00;;;;;5.26;75.63;99118.41;6279843;20;3575262;-52
2022/04/19 05:00:33;;;;;;;;;23.00;22.50;;;;;5.31;75.33;99116.41;6278503;20;2500779;-51
2022/04/19 05:03:01;;;;;;;;;21.00;19.50;;;;;5.31;75.88;99112.88;6290259;20;2833671;-47
2022/04/19 05:05:30;;;;;;;;;23.00;19.00;;;;;5.35;75.40;99111.81;6288566;20;3554405;-50
2022/04/19 05:07:57;;;;;;;;;25.00;21.00;;;;;5.48;75.59;99116.44;6289972;20;2498185;-49
2022/04/19 05:10:27;;;;;;;;;39.00;32.33;;;;;5.57;74.98;99115.09;6291191;20;2869131;-51
2022/04/19 05:12:56;;;;;;;;;20.00;16.67;;;;;5.58;74.79;99121.28;6325333;20;3558584;-50
2022/04/19 05:15:23;;;;;;;;;24.50;22.00;;;;;5.49;75.13;99119.97;6289297;20;2496261;-51
2022/04/19 05:17:52;;;;;;;;;25.67;20.33;;;;;5.17;76.28;99114.41;6291301;20;3561681;-48
2022/04/19 05:20:21;;;;;;;;;30.50;27.00;;;;;5.42;76.12;99113.19;6290948;20;2854430;-49
2022/04/19 05:22:49;;;;;;;;;36.00;31.00;;;;;5.58;76.42;99115.97;6292190;20;2850261;-49
2022/04/19 05:25:17;;;;;;;;;29.00;29.00;;;;;5.59;76.07;99123.03;6293139;20;2849290;-49
2022/04/19 05:27:46;;;;;;;;;31.50;24.00;;;;;5.56;75.68;99113.41;6293002;20;2857673;-51
2022/04/19 05:30:15;;;;;;;;;33.50;27.00;;;;;5.30;75.67;99116.50;6289012;20;2841014;-49
2022/04/19 05:32:44;;;;;;;;;25.50;24.00;;;;;5.36;75.89;99108.19;6292213;20;2840914;-50
2022/04/19 05:35:11;;;;;;;;;26.50;24.00;;;;;5.64;74.91;99121.00;6289211;20;2500366;-51
2022/04/19 05:37:40;;;;;;;;;20.00;20.00;;;;;5.76;73.17;99109.69;6292991;20;2825269;-47
2022/04/19 05:40:10;;;;;;;;;26.00;25.50;;;;;5.82;74.20;99109.41;6287623;20;2847114;-50
2022/04/19 05:42:38;;;;;;;;;32.50;28.00;;;;;5.48;74.81;99111.13;6292546;20;2845073;-50
2022/04/19 05:45:08;;;;;;;;;25.33;23.33;;;;;5.70;74.61;99105.56;6290640;20;3576261;-50
2022/04/19 05:47:37;;;;;;;;;36.50;28.00;;;;;5.71;74.59;99111.72;6291645;20;2869036;-48
2022/04/19 05:50:07;;;;;;;;;25.00;21.50;;;;;5.60;76.14;99108.75;6289543;20;2835687;-47
2022/04/19 05:52:36;;;;;;;;;22.67;14.67;;;;;6.17;74.78;99108.53;6291010;20;3541940;-51
2022/04/19 05:55:06;;;;;;;;;24.33;18.33;;;;;5.96;74.39;99110.53;6321880;20;3549337;-48
2022/04/19 05:57:34;;;;;;;;;23.67;20.00;;;;;6.08;75.77;99109.88;6292828;20;3560696;-49
2022/04/19 06:00:05;;;;;;;;;20.00;18.50;;;;;6.08;75.60;99109.88;6321086;20;2827842;-50
2022/04/19 06:05:20;;;;;;;;;18.00;17.00;;;;;6.42;74.30;99118.75;6292287;20;2827501;-47
2022/04/19 06:07:52;;;;;;;;;26.00;21.00;;;;;6.30;74.89;99115.81;6289290;20;2500271;-48
2022/04/19 06:10:22;;;;;;;;;19.00;16.67;;;;;6.66;73.79;99112.09;6289945;20;3558550;-49
2022/04/19 06:12:51;;;;;;;;;23.33;22.00;;;;;7.18;71.51;99114.50;6313790;20;3588782;-52
2022/04/19 06:15:20;;;;;;;;;23.33;20.00;;;;;7.31;70.56;99119.16;6284457;20;3562725;-51
2022/04/19 06:17:48;;;;;;;;;24.00;22.00;;;;;8.01;69.14;99123.03;6284849;20;2841925;-50
2022/04/19 06:20:17;;;;;;;;;19.50;19.50;;;;;8.44;66.56;99128.47;6294930;20;2830837;-52
2022/04/19 06:22:46;;;;;;;;;29.50;25.50;;;;;8.12;66.82;99122.38;6283907;20;2841916;-49
2022/04/19 06:25:15;;;;;;;;;29.50;28.00;;;;;9.28;64.06;99130.28;6286575;20;2844083;-52
2022/04/19 06:27:44;;;;;;;;;30.67;28.33;;;;;10.20;59.61;99128.63;6285030;20;2859772;-50
2022/04/19 06:30:14;;;;;;;;;21.50;18.00;;;;;10.64;58.36;99135.41;6314466;20;2827518;-53
2022/04/19 06:32:43;;;;;;;;;28.50;28.50;;;;;12.18;53.48;99139.25;6283545;20;2848156;-52
2022/04/19 06:35:13;;;;;;;;;57.33;46.67;;;;;11.40;55.53;99139.75;6282433;20;3620011;-52
2022/04/19 06:37:41;;;;;;;;;17.50;17.00;;;;;13.62;48.62;99137.69;6315593;20;2824214;-57
2022/04/19 06:40:12;;;;;;;;;33.00;28.00;;;;;12.38;50.75;99140.44;6280891;20;2853384;-57
2022/04/19 06:42:42;;;;;;;;;30.50;30.00;;;;;11.15;51.08;99148.75;6283246;20;2842002;-54
2022/04/19 06:45:11;;;;;;;;;15.00;14.00;;;;;13.68;47.15;99150.66;6283796;20;2809647;-54
2022/04/19 06:47:40;;;;;;;;;25.50;25.50;;;;;14.78;43.23;99147.69;6284120;20;2856602;-56
2022/04/19 06:50:10;;;;;;;;;43.00;34.00;;;;;15.61;41.29;99153.78;6283643;20;2826327;-56
2022/04/19 06:52:38;;;;;;;;;37.00;34.33;;;;;14.59;43.28;99153.84;6286113;20;3590880;-54
2022/04/19 06:55:07;;;;;;;;;35.33;31.67;;;;;15.37;41.57;99149.59;6282007;20;3585646;-56
2022/04/19 06:57:39;;;;;;;;;16.67;13.33;;;;;16.26;40.52;99152.28;6283305;20;3536721;-57
2022/04/19 07:00:08;;;;;;;;;11.67;11.67;;;;;17.57;38.13;99154.16;6280673;20;3536004;-56
2022/04/19 07:02:37;;;;;;;;;21.67;19.33;;;;;17.14;38.21;99152.97;6315668;20;3561720;-57
2022/04/19 07:05:06;;;;;;;;;19.00;15.00;;;;;14.63;42.42;99144.44;6312696;20;2483631;-58
2022/04/19 07:07:34;;;;;;;;;13.00;13.00;;;;;12.46;46.80;99137.13;6283579;20;2806584;-54
2022/04/19 07:10:02;;;;;;;;;14.67;14.33;;;;;10.66;53.17;99142.38;6283379;20;3535665;-53
2022/04/19 07:12:31;;;;;;;;;20.33;15.00;;;;;11.48;52.55;99144.56;6317710;20;3542982;-54
2022/04/19 07:15:00;;;;;;;;;16.00;15.00;;;;;11.43;52.24;99147.59;6314096;20;3537744;-54
2022/04/19 07:17:28;;;;;;;;;48.00;22.67;;;;;10.90;54.22;99133.53;6283277;20;2871140;-55
2022/04/19 07:28:21;;;;;;;;;15.67;15.67;;;;;15.24;42.61;99146.28;6315030;20;3541899;-54
2022/04/19 07:30:51;;;;;;;;;15.33;15.33;;;;;14.32;43.79;99148.91;6311144;20;3542011;-57
2022/04/19 07:33:20;;;;;;;;;25.00;24.67;;;;;12.24;50.50;99137.94;6283690;20;2844000;-55
2022/04/19 07:35:51;;;;;;;;;15.00;15.00;;;;;10.82;53.04;99133.22;6318569;20;2806494;-52
2022/04/19 07:38:19;;;;;;;;;15.00;15.00;;;;;10.58;54.61;99134.00;6286109;20;2804453;-52
2022/04/19 07:40:48;;;;;;;;;14.00;14.00;;;;;9.96;53.46;99131.16;6280522;20;3520150;-55
2022/04/19 07:43:16;;;;;;;;;16.00;16.00;;;;;10.44;56.16;99139.50;6311463;20;2491955;-51
2022/04/19 07:45:44;;;;;;;;;16.33;15.00;;;;;9.95;56.01;99132.94;6282808;20;3542059;-54
2022/04/19 07:48:13;;;;;;;;;15.33;15.00;;;;;10.26;56.61;99128.19;6281763;20;3534616;-52
2022/04/19 07:50:42;;;;;;;;;23.00;21.00;;;;;10.16;57.19;99127.94;6310924;20;2830513;-50
2022/04/19 07:53:11;;;;;;;;;17.00;16.00;;;;;9.65;57.05;99128.69;6281892;20;2498193;-52
2022/04/19 07:55:38;;;;;;;;;15.50;15.50;;;;;9.94;56.83;99133.06;6285622;20;2805554;-52
2022/04/19 07:58:06;;;;;;;;;17.50;15.00;;;;;10.38;56.71;99127.38;6283425;20;2805645;-51
2022/04/19 08:00:36;;;;;;;;;27.50;26.50;;;;;10.28;56.39;99129.81;6281612;20;2854463;-52
2022/04/19 08:03:05;;;;;;;;;16.00;15.67;;;;;10.26;55.15;99126.34;6282203;20;3531556;-50
2022/04/19 08:05:33;;;;;;;;;19.50;14.50;;;;;10.22;55.79;99130.22;6317823;20;2803413;-53
2022/04/19 08:08:01;;;;;;;;;28.50;25.50;;;;;10.13;54.73;99122.78;6279874;20;2496093;-50
2022/04/19 08:10:29;;;;;;;;;15.67;15.67;;;;;10.05;55.93;99126.00;6281551;20;3536701;-49
2022/04/19 08:12:58;;;;;;;;;20.00;17.00;;;;;9.93;54.74;99121.50;6280984;20;3570135;-50
2022/04/19 08:15:27;;;;;;;;;14.00;12.33;;;;;9.98;54.96;99123.84;6279899;20;2800623;-53
2022/04/19 08:17:55;;;;;;;;;14.50;14.50;;;;;10.43;54.29;99132.41;6317137;20;2803552;-53
2022/04/19 08:20:24;;;;;;;;;8.50;8.50;;;;;10.92;50.83;99128.91;6278494;20;2741945;-49
2022/04/19 08:22:53;;;;;;;;;24.33;22.00;;;;;10.74;51.94;99129.28;6283381;20;3582649;-48
2022/04/19 08:25:22;;;;;;;;;36.67;33.00;;;;;10.62;50.92;99130.16;6313138;20;3572126;-53
2022/04/19 08:27:52;;;;;;;;;11.00;9.40;;;;;10.11;52.65;99125.59;6335089;20;2775403;-56
2022/04/19 08:30:21;;;;;;;;;41.00;34.33;;;;;10.21;52.67;99133.84;6283142;20;2860763;-55
2022/04/19 08:32:50;;;;;;;;;24.00;21.33;;;;;10.61;51.60;99124.88;6315432;20;3575358;-48
2022/04/19 08:35:20;;;;;;;;;63.00;48.00;;;;;10.62;51.77;99127.47;6311171;20;3637799;-61
2022/04/19 08:37:49;;;;;;;;;42.50;36.50;;;;;10.46;50.76;99140.25;6283119;20;2847535;-61
2022/04/19 08:40:20;;;;;;;;;248.00;203.00;;;;;10.73;49.37;99132.91;6278761;20;3709597;-61
2022/04/19 08:42:49;;;;;;;;;29.67;27.00;;;;;10.60;49.86;99131.22;6283922;20;2852354;-60
2022/04/19 08:45:19;;;;;;;;;11.00;11.00;;;;;10.89;50.46;99131.84;6315959;20;2792066;-54
2022/04/19 08:47:49;;;;;;;;;64.67;48.00;;;;;10.88;49.33;99135.50;6286246;20;3644189;-56
2022/04/19 08:50:21;;;;;;;;;67.00;53.00;;;;;11.11;48.94;99132.00;6312619;20;3501271;-47
2022/04/19 08:58:31;;;;;;;;;79.00;58.00;;;;;10.96;48.96;99127.75;6282179;20;3664372;-54
2022/04/19 09:00:59;;;;;;;;;23.00;19.00;;;;;10.86;48.70;99132.06;6285700;20;2832530;-57
2022/04/19 09:03:27;;;;;;;;;12.00;11.00;;;;;10.81;50.10;99118.94;6286312;20;2798219;-54
2022/04/19 09:05:57;;;;;;;;;13.20;12.00;;;;;10.98;49.58;99121.28;6311110;20;2816114;-50
2022/04/19 09:08:27;;;;;;;;;76.67;56.00;;;;;11.03;49.15;99122.78;6285888;20;3654594;-60
2022/04/19 09:11:08;;;;;;;;;63.33;49.33;;;;;10.68;50.39;99118.97;6282237;20;3627434;-61
2022/04/19 09:13:36;;;;;;;;;189.50;133.00;;;;;11.24;49.81;99125.72;6306758;20;1937781;-61
2022/04/19 09:16:08;;;;;;;;;84.67;56.33;;;;;10.88;50.58;99119.38;6277462;20;3654555;-60
2022/04/19 09:18:37;;;;;;;;;13.00;13.00;;;;;10.48;50.85;99120.38;6280336;20;2784738;-61
2022/04/19 09:21:06;;;;;;;;;21.00;21.00;;;;;10.10;50.36;99114.97;6282110;20;2843085;-61
2022/04/19 09:23:36;;;;;;;;;63.33;47.33;;;;;10.65;51.10;99124.56;6283777;20;3635828;-61
2022/04/19 09:26:08;;;;;;;;;57.00;44.67;;;;;10.62;50.91;99115.88;6312167;20;3625429;-61
2022/04/19 09:28:39;;;;;;;;;101.33;70.67;;;;;11.25;50.08;99117.56;6314204;20;3688943;-61
2022/04/19 09:31:13;;;;;;;;;80.50;60.25;;;;;10.85;49.57;99115.09;6285041;20;3662847;-61
2022/04/19 09:33:44;;;;;;;;;125.25;93.25;;;;;10.77;50.16;99107.59;6314106;20;3704432;-61
2022/04/19 09:36:13;;;;;;;;;17.00;15.00;;;;;10.50;49.98;99114.91;6277281;20;2810914;-61
2022/04/19 09:38:51;;;;;;;;;27.67;26.67;;;;;10.58;51.41;99107.16;6281897;20;2850370;-61
2022/04/19 09:41:33;;;;;;;;;28.00;24.00;;;;;10.75;50.40;99106.81;6310873;20;2846080;-61
2022/04/19 09:44:13;;;;;;;;;15.50;14.50;;;;;11.72;49.73;99112.31;6285302;20;2819122;-55
2022/04/19 09:47:06;;;;;;;;;14.00;14.00;;;;;11.53;47.51;99105.63;6285190;20;2795029;-50
2022/04/19 09:49:52;;;;;;;;;30.33;24.33;;;;;11.54;49.10;99112.72;6286472;20;3598420;-47
2022/04/19 09:52:22;;;;;;;;;80.00;64.75;;;;;12.63;48.47;99109.72;6319585;20;3648224;-47
2022/04/19 09:55:11;;;;;;;;;13.00;12.00;;;;;12.55;46.51;99104.09;6320342;20;2807559;-61
2022/04/19 09:57:41;;;;;;;;;22.00;22.00;;;;;13.07;48.65;99099.91;6290498;20;3575221;-56
2022/04/19 10:00:17;;;;;;;;;15.00;15.00;;;;;11.81;47.86;99099.00;6315055;20;3513760;-57
2022/04/19 10:08:24;;;;;;;;;27.67;27.33;;;;;12.47;47.07;99098.44;6286135;20;2858723;-52
2022/04/19 10:10:56;;;;;;;;;29.33;24.67;;;;;12.04;46.21;99099.13;6318258;20;3584593;-49
2022/04/19 10:13:25;;;;;;;;;22.67;22.67;;;;;11.59;47.26;99094.41;6289087;20;3576303;-49
2022/04/19 10:15:54;;;;;;;;;41.00;36.50;;;;;11.46;48.09;99093.59;6317948;20;2853420;-51
2022/04/19 10:18:22;;;;;;;;;24.50;24.50;;;;;10.79;48.70;99090.50;6292170;20;2849237;-49
2022/04/19 10:20:53;;;;;;;;;37.33;32.67;;;;;11.33;48.97;99085.59;6286492;20;3613746;-50
2022/04/19 10:23:21;;;;;;;;;20.50;18.00;;;;;11.61;49.40;99080.81;6317173;20;2500261;-49
2022/04/19 10:25:49;;;;;;;;;20.50;18.00;;;;;11.52;48.13;99076.16;6284939;20;2500418;-48
2022/04/19 10:28:29;;;;;;;;;29.50;25.50;;;;;11.64;48.23;99081.47;6287836;20;2500337;-47
2022/04/19 10:30:58;;;;;;;;;15.00;15.00;;;;;11.70;48.13;99073.91;6283102;20;2798312;-49
2022/04/19 10:33:48;;;;;;;;;14.67;14.67;;;;;11.71;46.85;99070.25;6318553;20;3532703;-53
2022/04/19 10:36:34;;;;;;;;;49.00;38.33;;;;;12.07;46.83;99072.81;6320112;20;3607591;-49
2022/04/19 10:39:12;;;;;;;;;37.00;34.33;;;;;11.54;47.74;99071.53;6288295;20;3606506;-51
2022/04/19 10:42:05;;;;;;;;;83.67;65.33;;;;;11.72;49.18;99063.91;6285368;20;3668069;-53
2022/04/19 10:44:43;;;;;;;;;30.50;28.50;;;;;11.29;48.43;99067.97;6280281;20;2484037;-49
2022/04/19 10:47:22;;;;;;;;;76.00;59.00;;;;;11.39;47.28;99065.47;6288470;20;3623290;-51
2022/04/19 10:50:07;;;;;;;;;16.00;14.00;;;;;11.03;48.66;99059.16;6314764;20;3530517;-51
2022/04/19 10:52:40;;;;;;;;;16.00;16.00;;;;;10.73;48.98;99068.47;6287598;20;2802353;-49
2022/04/19 10:55:24;;;;;;;;;14.40;14.40;;;;;11.15;48.82;99063.63;6311396;20;2812874;-47
2022/04/19 10:58:17;;;;;;;;;33.00;30.50;;;;;11.05;49.45;99067.09;6286628;20;2856504;-48
2022/04/19 11:00:58;;;;;;;;;44.33;35.67;;;;;10.46;49.98;99065.09;6282909;20;2869122;-51
2022/04/19 11:03:34;;;;;;;;;14.00;14.00;;;;;10.21;49.61;99065.94;6320099;20;2796078;-49
2022/04/19 11:06:10;;;;;;;;;61.00;46.33;;;;;10.80;49.04;99062.69;6287115;20;3629443;-49
2022/04/19 11:08:41;;;;;;;;;59.00;46.00;;;;;10.92;48.45;99073.38;6316544;20;2863887;-47
2022/04/19 11:11:20;;;;;;;;;24.50;24.50;;;;;10.93;49.09;99067.03;6314488;20;2483607;-51
2022/04/19 11:14:40;;;;;;;;;18.00;15.67;;;;;11.31;47.96;99065.19;6288192;20;2823290;-48
2022/04/19 11:17:30;;;;;;;;;28.67;21.67;;;;;11.52;47.66;99060.88;6320576;20;3593967;-47
2022/04/19 11:20:14;;;;;;;;;18.50;17.50;;;;;11.55;47.50;99057.09;6279631;20;2500387;-50
2022/04/19 11:22:52;;;;;;;;;17.00;17.00;;;;;11.53;47.89;99057.25;6288213;20;2500258;-48
2022/04/19 11:25:43;;;;;;;;;23.00;20.50;;;;;12.09;46.71;99059.25;6287217;20;2834753;-48
2022/04/19 11:28:11;;;;;;;;;17.50;17.50;;;;;11.68;48.08;99059.72;6282176;20;2500240;-47
2022/04/19 11:31:07;;;;;;;;;18.00;16.67;;;;;11.76;48.32;99065.38;6288916;20;2829492;-49
2022/04/19 11:33:36;;;;;;;;;25.00;22.00;;;;;11.53;47.82;99064.41;6315177;20;2483591;-48
2022/04/19 11:36:15;;;;;;;;;29.00;26.00;;;;;11.06;48.69;99058.94;6285455;20;2838935;-49
2022/04/19 11:38:48;;;;;;;;;32.00;30.67;;;;;11.18;49.06;99063.41;6286579;20;3575205;-48
2022/04/19 11:46:45;;;;;;;;;21.00;16.00;;;;;10.37;51.43;99071.09;6286171;20;2500286;-50
2022/04/19 11:49:19;;;;;;;;;22.00;19.50;;;;;10.47;50.04;99067.66;6285569;20;2498298;-50
2022/04/19 11:52:00;;;;;;;;;23.50;23.00;;;;;10.39;50.18;99067.34;6286552;20;2849289;-51
2022/04/19 11:54:32;;;;;;;;;16.50;16.50;;;;;10.72;50.14;99065.94;6286140;20;2825286;-48
2022/04/19 11:57:10;;;;;;;;;15.33;15.33;;;;;10.33;51.19;99067.78;6284048;20;3546057;-47
2022/04/19 11:59:40;;;;;;;;;23.00;20.67;;;;;10.53;52.05;99071.72;6317357;20;3559625;-50